sensor_id;sensor_type;location;lat;lon;timestamp;P1;durP1;ratioP1;P2;durP2;ratioP2
25125;SDS011;13106;50.808;5.670;2022-09-01T00:02:11;3.28;;;2.00;;
25125;SDS011;13106;50.808;5.670;2022-09-01T00:04:39;3.28;;;1.98;;
25125;SDS011;13106;50.808;5.670;2022-09-01T00:07:07;4.07;;;1.90;;
25125;SDS011;13106;50.808;5.670;2022-09-01T00:09:33;3.97;;;1.83;;
25125;SDS011;13106;50.808;5.670;2022-09-01T00:12:00;4.85;;;2.00;;
25125;SDS011;13106;50.808;5.670;2022-09-01T00:14:28;3.47;;;1.88;;
25125;SDS011;13106;50.808;5.670;2022-09-01T00:16:54;4.65;;;1.73;;
25125;SDS011;13106;50.808;5.670;2022-09-01T00:19:21;9.27;;;1.80;;
25125;SDS011;13106;50.808;5.670;2022-09-01T00:21:47;4.40;;;1.85;;
25125;SDS011;13106;50.808;5.670;2022-09-01T00:24:15;5.10;;;1.90;;
25125;SDS011;13106;50.808;5.670;2022-09-01T00:26:42;3.08;;;2.28;;
25125;SDS011;13106;50.808;5.670;2022-09-01T00:29:08;4.03;;;1.77;;
25125;SDS011;13106;50.808;5.670;2022-09-01T00:31:34;6.15;;;2.17;;
25125;SDS011;13106;50.808;5.670;2022-09-01T00:34:00;3.78;;;1.92;;
25125;SDS011;13106;50.808;5.670;2022-09-01T00:36:26;4.45;;;2.17;;
25125;SDS011;13106;50.808;5.670;2022-09-01T00:38:53;10.45;;;2.55;;
25125;SDS011;13106;50.808;5.670;2022-09-01T00:41:20;4.05;;;1.92;;
25125;SDS011;13106;50.808;5.670;2022-09-01T00:43:47;5.65;;;2.38;;
25125;SDS011;13106;50.808;5.670;2022-09-01T00:46:21;6.35;;;2.40;;
25125;SDS011;13106;50.808;5.670;2022-09-01T00:48:58;6.18;;;2.30;;
25125;SDS011;13106;50.808;5.670;2022-09-01T00:51:26;3.63;;;2.22;;
25125;SDS011;13106;50.808;5.670;2022-09-01T00:53:52;7.80;;;2.40;;
25125;SDS011;13106;50.808;5.670;2022-09-01T00:56:19;5.15;;;3.00;;
25125;SDS011;13106;50.808;5.670;2022-09-01T00:58:46;3.97;;;2.60;;
25125;SDS011;13106;50.808;5.670;2022-09-01T01:01:12;4.00;;;2.33;;
25125;SDS011;13106;50.808;5.670;2022-09-01T01:03:38;4.97;;;2.45;;
25125;SDS011;13106;50.808;5.670;2022-09-01T01:06:06;3.58;;;2.47;;
25125;SDS011;13106;50.808;5.670;2022-09-01T01:08:37;3.83;;;2.63;;
25125;SDS011;13106;50.808;5.670;2022-09-01T01:11:06;3.83;;;2.45;;
25125;SDS011;13106;50.808;5.670;2022-09-01T01:13:45;8.07;;;2.85;;
25125;SDS011;13106;50.808;5.670;2022-09-01T01:16:12;7.18;;;2.88;;
25125;SDS011;13106;50.808;5.670;2022-09-01T01:18:39;3.90;;;2.60;;
25125;SDS011;13106;50.808;5.670;2022-09-01T01:21:06;4.20;;;2.67;;
25125;SDS011;13106;50.808;5.670;2022-09-01T01:23:56;10.57;;;3.63;;
25125;SDS011;13106;50.808;5.670;2022-09-01T01:26:22;3.07;;;2.53;;
25125;SDS011;13106;50.808;5.670;2022-09-01T01:28:48;7.70;;;3.10;;
25125;SDS011;13106;50.808;5.670;2022-09-01T01:31:17;6.97;;;3.00;;
25125;SDS011;13106;50.808;5.670;2022-09-01T01:33:49;3.13;;;2.70;;
25125;SDS011;13106;50.808;5.670;2022-09-01T01:38:46;6.82;;;3.15;;
25125;SDS011;13106;50.808;5.670;2022-09-01T01:41:14;5.63;;;3.25;;
25125;SDS011;13106;50.808;5.670;2022-09-01T01:43:41;6.28;;;3.10;;
25125;SDS011;13106;50.808;5.670;2022-09-01T01:46:08;5.60;;;3.33;;
25125;SDS011;13106;50.808;5.670;2022-09-01T01:48:37;6.93;;;3.42;;
25125;SDS011;13106;50.808;5.670;2022-09-01T01:51:03;5.13;;;3.10;;
25125;SDS011;13106;50.808;5.670;2022-09-01T01:53:30;5.20;;;3.00;;
25125;SDS011;13106;50.808;5.670;2022-09-01T01:55:57;4.53;;;3.25;;
25125;SDS011;13106;50.808;5.670;2022-09-01T01:58:25;7.93;;;3.58;;
25125;SDS011;13106;50.808;5.670;2022-09-01T02:00:53;6.35;;;3.67;;
25125;SDS011;13106;50.808;5.670;2022-09-01T02:03:21;6.07;;;3.55;;
25125;SDS011;13106;50.808;5.670;2022-09-01T02:05:50;10.10;;;3.97;;
25125;SDS011;13106;50.808;5.670;2022-09-01T02:08:18;6.13;;;3.70;;
25125;SDS011;13106;50.808;5.670;2022-09-01T02:10:50;6.95;;;3.55;;
25125;SDS011;13106;50.808;5.670;2022-09-01T02:13:17;6.93;;;3.58;;
25125;SDS011;13106;50.808;5.670;2022-09-01T02:15:46;5.22;;;3.95;;
25125;SDS011;13106;50.808;5.670;2022-09-01T02:18:14;7.60;;;4.22;;
25125;SDS011;13106;50.808;5.670;2022-09-01T02:20:42;7.77;;;4.27;;
25125;SDS011;13106;50.808;5.670;2022-09-01T02:23:08;7.38;;;3.85;;
25125;SDS011;13106;50.808;5.670;2022-09-01T02:25:39;5.50;;;4.00;;
25125;SDS011;13106;50.808;5.670;2022-09-01T02:28:12;8.27;;;3.78;;
25125;SDS011;13106;50.808;5.670;2022-09-01T02:30:42;9.23;;;3.78;;
25125;SDS011;13106;50.808;5.670;2022-09-01T02:33:09;6.63;;;4.03;;
25125;SDS011;13106;50.808;5.670;2022-09-01T02:35:35;5.85;;;4.18;;
25125;SDS011;13106;50.808;5.670;2022-09-01T02:38:05;7.07;;;4.40;;
25125;SDS011;13106;50.808;5.670;2022-09-01T02:40:32;7.63;;;4.38;;
25125;SDS011;13106;50.808;5.670;2022-09-01T02:42:59;6.78;;;4.13;;
25125;SDS011;13106;50.808;5.670;2022-09-01T02:45:28;6.50;;;4.20;;
25125;SDS011;13106;50.808;5.670;2022-09-01T02:47:55;9.15;;;4.63;;
25125;SDS011;13106;50.808;5.670;2022-09-01T02:50:21;7.00;;;4.35;;
25125;SDS011;13106;50.808;5.670;2022-09-01T02:52:49;5.57;;;3.95;;
25125;SDS011;13106;50.808;5.670;2022-09-01T02:55:16;6.93;;;3.78;;
25125;SDS011;13106;50.808;5.670;2022-09-01T02:57:49;5.95;;;3.85;;
25125;SDS011;13106;50.808;5.670;2022-09-01T03:00:19;7.00;;;3.88;;
25125;SDS011;13106;50.808;5.670;2022-09-01T03:02:55;9.35;;;4.57;;
25125;SDS011;13106;50.808;5.670;2022-09-01T03:05:23;7.28;;;4.07;;
25125;SDS011;13106;50.808;5.670;2022-09-01T03:07:58;8.73;;;3.80;;
25125;SDS011;13106;50.808;5.670;2022-09-01T03:10:26;9.73;;;4.60;;
25125;SDS011;13106;50.808;5.670;2022-09-01T03:12:56;6.97;;;3.80;;
25125;SDS011;13106;50.808;5.670;2022-09-01T03:15:22;6.95;;;3.85;;
25125;SDS011;13106;50.808;5.670;2022-09-01T03:17:49;5.97;;;3.92;;
25125;SDS011;13106;50.808;5.670;2022-09-01T03:20:16;7.78;;;4.20;;
25125;SDS011;13106;50.808;5.670;2022-09-01T03:22:45;9.23;;;4.40;;
25125;SDS011;13106;50.808;5.670;2022-09-01T03:25:12;4.90;;;3.92;;
25125;SDS011;13106;50.808;5.670;2022-09-01T03:27:38;8.27;;;4.15;;
25125;SDS011;13106;50.808;5.670;2022-09-01T03:30:04;5.28;;;4.03;;
25125;SDS011;13106;50.808;5.670;2022-09-01T03:32:31;9.13;;;4.38;;
25125;SDS011;13106;50.808;5.670;2022-09-01T03:34:57;6.15;;;4.55;;
25125;SDS011;13106;50.808;5.670;2022-09-01T03:37:24;8.25;;;4.72;;
25125;SDS011;13106;50.808;5.670;2022-09-01T03:39:51;5.97;;;4.25;;
25125;SDS011;13106;50.808;5.670;2022-09-01T03:42:17;7.10;;;4.72;;
25125;SDS011;13106;50.808;5.670;2022-09-01T03:44:44;7.10;;;4.95;;
25125;SDS011;13106;50.808;5.670;2022-09-01T03:47:10;9.65;;;4.93;;
25125;SDS011;13106;50.808;5.670;2022-09-01T03:49:39;6.95;;;4.70;;
25125;SDS011;13106;50.808;5.670;2022-09-01T03:52:07;7.22;;;4.90;;
25125;SDS011;13106;50.808;5.670;2022-09-01T03:54:36;9.10;;;5.40;;
25125;SDS011;13106;50.808;5.670;2022-09-01T03:57:02;7.70;;;5.00;;
25125;SDS011;13106;50.808;5.670;2022-09-01T03:59:30;12.32;;;5.32;;
25125;SDS011;13106;50.808;5.670;2022-09-01T04:01:57;7.90;;;5.13;;
25125;SDS011;13106;50.808;5.670;2022-09-01T04:04:24;7.30;;;4.85;;
25125;SDS011;13106;50.808;5.670;2022-09-01T04:06:50;6.60;;;5.10;;
25125;SDS011;13106;50.808;5.670;2022-09-01T04:09:16;7.93;;;5.78;;
25125;SDS011;13106;50.808;5.670;2022-09-01T04:11:43;10.35;;;5.57;;
25125;SDS011;13106;50.808;5.670;2022-09-01T04:14:10;8.20;;;5.47;;
25125;SDS011;13106;50.808;5.670;2022-09-01T04:16:36;9.35;;;4.80;;
25125;SDS011;13106;50.808;5.670;2022-09-01T04:19:22;7.78;;;5.20;;
25125;SDS011;13106;50.808;5.670;2022-09-01T04:21:53;7.55;;;5.15;;
25125;SDS011;13106;50.808;5.670;2022-09-01T04:24:20;9.93;;;5.60;;
25125;SDS011;13106;50.808;5.670;2022-09-01T04:26:48;6.00;;;5.13;;
25125;SDS011;13106;50.808;5.670;2022-09-01T04:29:15;6.45;;;5.47;;
25125;SDS011;13106;50.808;5.670;2022-09-01T04:31:42;6.78;;;5.55;;
25125;SDS011;13106;50.808;5.670;2022-09-01T04:34:09;11.05;;;6.15;;
25125;SDS011;13106;50.808;5.670;2022-09-01T04:36:42;9.57;;;5.80;;
25125;SDS011;13106;50.808;5.670;2022-09-01T04:39:08;8.35;;;5.55;;
25125;SDS011;13106;50.808;5.670;2022-09-01T04:41:38;9.15;;;6.22;;
25125;SDS011;13106;50.808;5.670;2022-09-01T04:44:05;12.13;;;5.85;;
25125;SDS011;13106;50.808;5.670;2022-09-01T04:46:33;10.48;;;6.32;;
25125;SDS011;13106;50.808;5.670;2022-09-01T04:49:00;6.90;;;5.50;;
25125;SDS011;13106;50.808;5.670;2022-09-01T04:51:34;10.10;;;5.32;;
25125;SDS011;13106;50.808;5.670;2022-09-01T04:54:02;9.35;;;5.97;;
25125;SDS011;13106;50.808;5.670;2022-09-01T04:56:32;8.65;;;5.55;;
25125;SDS011;13106;50.808;5.670;2022-09-01T04:58:59;10.02;;;6.03;;
25125;SDS011;13106;50.808;5.670;2022-09-01T05:01:27;11.35;;;6.10;;
25125;SDS011;13106;50.808;5.670;2022-09-01T05:03:53;11.27;;;6.70;;
25125;SDS011;13106;50.808;5.670;2022-09-01T05:06:26;8.70;;;6.40;;
25125;SDS011;13106;50.808;5.670;2022-09-01T05:08:52;11.52;;;6.43;;
25125;SDS011;13106;50.808;5.670;2022-09-01T05:11:21;10.48;;;6.80;;
25125;SDS011;13106;50.808;5.670;2022-09-01T05:13:48;10.85;;;7.07;;
25125;SDS011;13106;50.808;5.670;2022-09-01T05:16:18;9.38;;;6.30;;
25125;SDS011;13106;50.808;5.670;2022-09-01T05:18:48;11.98;;;6.10;;
25125;SDS011;13106;50.808;5.670;2022-09-01T05:21:15;8.10;;;6.30;;
25125;SDS011;13106;50.808;5.670;2022-09-01T05:23:43;7.80;;;6.28;;
25125;SDS011;13106;50.808;5.670;2022-09-01T05:26:14;11.15;;;6.90;;
25125;SDS011;13106;50.808;5.670;2022-09-01T05:28:49;10.40;;;6.18;;
25125;SDS011;13106;50.808;5.670;2022-09-01T05:31:18;11.45;;;5.63;;
25125;SDS011;13106;50.808;5.670;2022-09-01T05:33:48;6.38;;;5.25;;
25125;SDS011;13106;50.808;5.670;2022-09-01T05:36:19;7.55;;;5.68;;
25125;SDS011;13106;50.808;5.670;2022-09-01T05:41:12;12.65;;;6.20;;
25125;SDS011;13106;50.808;5.670;2022-09-01T05:43:39;8.60;;;5.65;;
25125;SDS011;13106;50.808;5.670;2022-09-01T05:46:10;12.85;;;6.97;;
25125;SDS011;13106;50.808;5.670;2022-09-01T05:48:39;11.50;;;6.28;;
25125;SDS011;13106;50.808;5.670;2022-09-01T05:51:06;9.52;;;6.07;;
25125;SDS011;13106;50.808;5.670;2022-09-01T05:53:32;8.85;;;6.38;;
25125;SDS011;13106;50.808;5.670;2022-09-01T05:55:59;10.77;;;6.70;;
25125;SDS011;13106;50.808;5.670;2022-09-01T05:58:30;6.63;;;5.72;;
25125;SDS011;13106;50.808;5.670;2022-09-01T06:00:56;9.38;;;6.85;;
25125;SDS011;13106;50.808;5.670;2022-09-01T06:03:23;10.15;;;6.70;;
25125;SDS011;13106;50.808;5.670;2022-09-01T06:05:51;12.73;;;6.18;;
25125;SDS011;13106;50.808;5.670;2022-09-01T06:08:18;8.68;;;6.20;;
25125;SDS011;13106;50.808;5.670;2022-09-01T06:10:45;10.50;;;6.45;;
25125;SDS011;13106;50.808;5.670;2022-09-01T06:13:14;9.68;;;6.38;;
25125;SDS011;13106;50.808;5.670;2022-09-01T06:15:41;9.75;;;6.82;;
25125;SDS011;13106;50.808;5.670;2022-09-01T06:18:09;11.07;;;6.80;;
25125;SDS011;13106;50.808;5.670;2022-09-01T06:20:42;9.05;;;6.38;;
25125;SDS011;13106;50.808;5.670;2022-09-01T06:23:08;8.82;;;5.50;;
25125;SDS011;13106;50.808;5.670;2022-09-01T06:25:40;7.47;;;4.82;;
25125;SDS011;13106;50.808;5.670;2022-09-01T06:28:07;8.43;;;5.15;;
25125;SDS011;13106;50.808;5.670;2022-09-01T06:30:36;8.43;;;5.65;;
25125;SDS011;13106;50.808;5.670;2022-09-01T06:33:02;7.82;;;4.03;;
25125;SDS011;13106;50.808;5.670;2022-09-01T06:35:33;8.98;;;4.68;;
25125;SDS011;13106;50.808;5.670;2022-09-01T06:37:59;7.10;;;4.95;;
25125;SDS011;13106;50.808;5.670;2022-09-01T06:40:26;6.97;;;4.95;;
25125;SDS011;13106;50.808;5.670;2022-09-01T06:42:52;7.28;;;4.53;;
25125;SDS011;13106;50.808;5.670;2022-09-01T06:45:20;5.53;;;4.38;;
25125;SDS011;13106;50.808;5.670;2022-09-01T06:47:47;8.32;;;4.50;;
25125;SDS011;13106;50.808;5.670;2022-09-01T06:50:15;7.35;;;4.30;;
25125;SDS011;13106;50.808;5.670;2022-09-01T06:52:43;7.93;;;5.13;;
25125;SDS011;13106;50.808;5.670;2022-09-01T06:55:10;12.85;;;5.45;;
25125;SDS011;13106;50.808;5.670;2022-09-01T06:57:37;11.93;;;5.15;;
25125;SDS011;13106;50.808;5.670;2022-09-01T07:00:04;8.27;;;5.15;;
25125;SDS011;13106;50.808;5.670;2022-09-01T07:02:31;9.50;;;5.18;;
25125;SDS011;13106;50.808;5.670;2022-09-01T07:04:57;8.70;;;4.82;;
25125;SDS011;13106;50.808;5.670;2022-09-01T07:07:24;9.82;;;5.45;;
25125;SDS011;13106;50.808;5.670;2022-09-01T07:12:20;8.77;;;4.40;;
25125;SDS011;13106;50.808;5.670;2022-09-01T07:14:47;7.97;;;3.80;;
25125;SDS011;13106;50.808;5.670;2022-09-01T07:17:13;9.57;;;3.75;;
25125;SDS011;13106;50.808;5.670;2022-09-01T07:19:39;7.55;;;4.00;;
25125;SDS011;13106;50.808;5.670;2022-09-01T07:22:05;6.20;;;3.55;;
25125;SDS011;13106;50.808;5.670;2022-09-01T07:24:31;9.57;;;3.67;;
25125;SDS011;13106;50.808;5.670;2022-09-01T07:26:58;6.88;;;3.70;;
25125;SDS011;13106;50.808;5.670;2022-09-01T07:29:24;7.78;;;3.55;;
25125;SDS011;13106;50.808;5.670;2022-09-01T07:31:50;5.43;;;3.13;;
25125;SDS011;13106;50.808;5.670;2022-09-01T07:34:19;4.93;;;3.03;;
25125;SDS011;13106;50.808;5.670;2022-09-01T07:36:46;5.43;;;3.20;;
25125;SDS011;13106;50.808;5.670;2022-09-01T07:39:13;8.98;;;3.03;;
25125;SDS011;13106;50.808;5.670;2022-09-01T07:41:39;4.00;;;3.35;;
25125;SDS011;13106;50.808;5.670;2022-09-01T07:44:06;5.82;;;3.60;;
25125;SDS011;13106;50.808;5.670;2022-09-01T07:46:34;11.20;;;3.28;;
25125;SDS011;13106;50.808;5.670;2022-09-01T07:49:01;5.20;;;2.72;;
25125;SDS011;13106;50.808;5.670;2022-09-01T07:51:27;6.57;;;2.85;;
25125;SDS011;13106;50.808;5.670;2022-09-01T07:53:54;5.00;;;2.60;;
25125;SDS011;13106;50.808;5.670;2022-09-01T07:56:21;5.05;;;2.80;;
25125;SDS011;13106;50.808;5.670;2022-09-01T07:58:48;6.22;;;2.28;;
25125;SDS011;13106;50.808;5.670;2022-09-01T08:01:16;6.22;;;2.40;;
25125;SDS011;13106;50.808;5.670;2022-09-01T08:03:47;4.28;;;2.60;;
25125;SDS011;13106;50.808;5.670;2022-09-01T08:06:14;8.05;;;2.17;;
25125;SDS011;13106;50.808;5.670;2022-09-01T08:08:44;5.97;;;2.10;;
25125;SDS011;13106;50.808;5.670;2022-09-01T08:11:15;6.70;;;2.08;;
25125;SDS011;13106;50.808;5.670;2022-09-01T08:13:42;6.65;;;1.88;;
25125;SDS011;13106;50.808;5.670;2022-09-01T08:16:08;5.40;;;2.05;;
25125;SDS011;13106;50.808;5.670;2022-09-01T08:18:34;2.72;;;2.20;;
25125;SDS011;13106;50.808;5.670;2022-09-01T08:21:04;4.22;;;2.10;;
25125;SDS011;13106;50.808;5.670;2022-09-01T08:23:30;6.55;;;2.20;;
25125;SDS011;13106;50.808;5.670;2022-09-01T08:25:56;3.35;;;2.05;;
25125;SDS011;13106;50.808;5.670;2022-09-01T08:28:22;4.35;;;2.08;;
25125;SDS011;13106;50.808;5.670;2022-09-01T08:30:48;6.38;;;2.22;;
25125;SDS011;13106;50.808;5.670;2022-09-01T08:33:14;7.53;;;1.90;;
25125;SDS011;13106;50.808;5.670;2022-09-01T08:35:41;2.42;;;2.00;;
25125;SDS011;13106;50.808;5.670;2022-09-01T08:38:07;3.55;;;1.77;;
25125;SDS011;13106;50.808;5.670;2022-09-01T08:40:33;3.85;;;1.70;;
25125;SDS011;13106;50.808;5.670;2022-09-01T08:43:17;2.95;;;1.77;;
25125;SDS011;13106;50.808;5.670;2022-09-01T08:45:50;5.07;;;1.60;;
25125;SDS011;13106;50.808;5.670;2022-09-01T08:48:21;8.97;;;1.80;;
25125;SDS011;13106;50.808;5.670;2022-09-01T08:50:50;6.67;;;1.77;;
25125;SDS011;13106;50.808;5.670;2022-09-01T08:53:20;3.73;;;1.70;;
25125;SDS011;13106;50.808;5.670;2022-09-01T08:55:49;2.13;;;1.70;;
25125;SDS011;13106;50.808;5.670;2022-09-01T08:58:17;2.43;;;1.60;;
25125;SDS011;13106;50.808;5.670;2022-09-01T09:00:44;3.40;;;1.83;;
25125;SDS011;13106;50.808;5.670;2022-09-01T09:03:19;4.40;;;2.30;;
25125;SDS011;13106;50.808;5.670;2022-09-01T09:06:09;4.75;;;1.83;;
25125;SDS011;13106;50.808;5.670;2022-09-01T09:08:56;3.08;;;1.48;;
25125;SDS011;13106;50.808;5.670;2022-09-01T09:16:23;3.08;;;1.40;;
25125;SDS011;13106;50.808;5.670;2022-09-01T09:19:02;5.15;;;1.55;;
25125;SDS011;13106;50.808;5.670;2022-09-01T09:21:32;4.38;;;1.60;;
25125;SDS011;13106;50.808;5.670;2022-09-01T09:24:11;4.47;;;1.55;;
25125;SDS011;13106;50.808;5.670;2022-09-01T09:26:38;6.70;;;1.50;;
25125;SDS011;13106;50.808;5.670;2022-09-01T09:29:04;2.72;;;1.65;;
25125;SDS011;13106;50.808;5.670;2022-09-01T09:31:31;3.58;;;1.60;;
25125;SDS011;13106;50.808;5.670;2022-09-01T09:33:58;3.92;;;1.50;;
25125;SDS011;13106;50.808;5.670;2022-09-01T09:36:34;2.65;;;1.40;;
25125;SDS011;13106;50.808;5.670;2022-09-01T09:39:06;6.70;;;1.65;;
25125;SDS011;13106;50.808;5.670;2022-09-01T09:41:33;2.55;;;1.50;;
25125;SDS011;13106;50.808;5.670;2022-09-01T09:44:04;2.92;;;1.40;;
25125;SDS011;13106;50.808;5.670;2022-09-01T09:49:07;7.07;;;1.30;;
25125;SDS011;13106;50.808;5.670;2022-09-01T09:51:34;4.78;;;1.20;;
25125;SDS011;13106;50.808;5.670;2022-09-01T09:54:14;2.90;;;1.30;;
25125;SDS011;13106;50.808;5.670;2022-09-01T09:56:41;2.55;;;1.20;;
25125;SDS011;13106;50.808;5.670;2022-09-01T09:59:15;3.30;;;1.50;;
25125;SDS011;13106;50.808;5.670;2022-09-01T10:01:42;5.05;;;1.50;;
25125;SDS011;13106;50.808;5.670;2022-09-01T10:04:08;1.83;;;1.17;;
25125;SDS011;13106;50.808;5.670;2022-09-01T10:12:02;4.55;;;1.08;;
25125;SDS011;13106;50.808;5.670;2022-09-01T10:14:42;1.52;;;1.10;;
25125;SDS011;13106;50.808;5.670;2022-09-01T10:17:12;3.95;;;1.40;;
25125;SDS011;13106;50.808;5.670;2022-09-01T10:19:40;2.53;;;1.13;;
25125;SDS011;13106;50.808;5.670;2022-09-01T10:22:08;2.72;;;1.42;;
25125;SDS011;13106;50.808;5.670;2022-09-01T10:24:35;4.03;;;1.30;;
25125;SDS011;13106;50.808;5.670;2022-09-01T10:27:24;3.85;;;1.30;;
25125;SDS011;13106;50.808;5.670;2022-09-01T10:29:55;4.80;;;1.20;;
25125;SDS011;13106;50.808;5.670;2022-09-01T10:32:32;2.45;;;1.20;;
25125;SDS011;13106;50.808;5.670;2022-09-01T10:34:58;3.00;;;1.42;;
25125;SDS011;13106;50.808;5.670;2022-09-01T10:37:26;3.10;;;1.40;;
25125;SDS011;13106;50.808;5.670;2022-09-01T10:42:38;2.42;;;1.30;;
25125;SDS011;13106;50.808;5.670;2022-09-01T10:45:06;7.07;;;1.33;;
25125;SDS011;13106;50.808;5.670;2022-09-01T10:47:41;5.50;;;1.40;;
25125;SDS011;13106;50.808;5.670;2022-09-01T10:52:51;2.92;;;1.25;;
25125;SDS011;13106;50.808;5.670;2022-09-01T10:55:18;3.47;;;1.13;;
25125;SDS011;13106;50.808;5.670;2022-09-01T10:58:29;4.88;;;1.38;;
25125;SDS011;13106;50.808;5.670;2022-09-01T11:03:48;3.22;;;1.40;;
25125;SDS011;13106;50.808;5.670;2022-09-01T11:05:57;1.20;;;1.02;;
25125;SDS011;13106;50.808;5.670;2022-09-01T11:13:40;2.28;;;1.25;;
25125;SDS011;13106;50.808;5.670;2022-09-01T11:18:55;4.20;;;1.25;;
25125;SDS011;13106;50.808;5.670;2022-09-01T11:21:27;6.18;;;1.38;;
25125;SDS011;13106;50.808;5.670;2022-09-01T11:26:45;5.63;;;1.40;;
25125;SDS011;13106;50.808;5.670;2022-09-01T11:31:56;5.18;;;1.10;;
25125;SDS011;13106;50.808;5.670;2022-09-01T11:34:23;2.97;;;1.55;;
25125;SDS011;13106;50.808;5.670;2022-09-01T11:36:53;3.58;;;1.30;;
25125;SDS011;13106;50.808;5.670;2022-09-01T11:39:29;4.25;;;1.30;;
25125;SDS011;13106;50.808;5.670;2022-09-01T11:46:57;1.73;;;1.02;;
25125;SDS011;13106;50.808;5.670;2022-09-01T11:49:31;3.38;;;1.52;;
25125;SDS011;13106;50.808;5.670;2022-09-01T11:51:58;5.18;;;1.10;;
25125;SDS011;13106;50.808;5.670;2022-09-01T11:54:25;4.72;;;1.15;;
25125;SDS011;13106;50.808;5.670;2022-09-01T11:56:51;2.22;;;1.45;;
25125;SDS011;13106;50.808;5.670;2022-09-01T11:59:31;4.22;;;1.27;;
25125;SDS011;13106;50.808;5.670;2022-09-01T12:01:57;4.32;;;1.02;;
25125;SDS011;13106;50.808;5.670;2022-09-01T12:04:25;4.20;;;1.10;;
25125;SDS011;13106;50.808;5.670;2022-09-01T12:07:02;2.90;;;1.08;;
25125;SDS011;13106;50.808;5.670;2022-09-01T12:09:36;4.85;;;1.27;;
25125;SDS011;13106;50.808;5.670;2022-09-01T12:12:04;3.30;;;1.20;;
25125;SDS011;13106;50.808;5.670;2022-09-01T12:14:30;4.95;;;1.25;;
25125;SDS011;13106;50.808;5.670;2022-09-01T12:16:58;6.40;;;1.50;;
25125;SDS011;13106;50.808;5.670;2022-09-01T12:19:26;2.55;;;1.00;;
25125;SDS011;13106;50.808;5.670;2022-09-01T12:22:03;3.13;;;1.05;;
25125;SDS011;13106;50.808;5.670;2022-09-01T12:24:31;2.13;;;1.15;;
25125;SDS011;13106;50.808;5.670;2022-09-01T12:26:58;1.50;;;1.10;;
25125;SDS011;13106;50.808;5.670;2022-09-01T12:29:25;5.63;;;1.25;;
25125;SDS011;13106;50.808;5.670;2022-09-01T12:31:52;2.85;;;1.20;;
25125;SDS011;13106;50.808;5.670;2022-09-01T12:39:33;5.25;;;1.05;;
25125;SDS011;13106;50.808;5.670;2022-09-01T12:42:01;3.70;;;1.30;;
25125;SDS011;13106;50.808;5.670;2022-09-01T12:44:29;4.63;;;1.08;;
25125;SDS011;13106;50.808;5.670;2022-09-01T12:47:03;3.70;;;1.30;;
25125;SDS011;13106;50.808;5.670;2022-09-01T12:49:41;3.17;;;1.05;;
25125;SDS011;13106;50.808;5.670;2022-09-01T12:52:16;3.22;;;1.17;;
25125;SDS011;13106;50.808;5.670;2022-09-01T12:54:46;3.15;;;1.13;;
25125;SDS011;13106;50.808;5.670;2022-09-01T12:57:29;1.38;;;1.02;;
25125;SDS011;13106;50.808;5.670;2022-09-01T13:02:33;4.20;;;1.20;;
25125;SDS011;13106;50.808;5.670;2022-09-01T13:07:44;4.32;;;0.90;;
25125;SDS011;13106;50.808;5.670;2022-09-01T13:10:10;2.90;;;1.00;;
25125;SDS011;13106;50.808;5.670;2022-09-01T13:12:40;5.18;;;1.17;;
25125;SDS011;13106;50.808;5.670;2022-09-01T13:15:06;2.47;;;1.30;;
25125;SDS011;13106;50.808;5.670;2022-09-01T13:17:32;1.98;;;1.10;;
25125;SDS011;13106;50.808;5.670;2022-09-01T13:19:58;5.00;;;1.20;;
25125;SDS011;13106;50.808;5.670;2022-09-01T13:22:24;3.67;;;1.40;;
25125;SDS011;13106;50.808;5.670;2022-09-01T13:24:50;2.78;;;1.35;;
25125;SDS011;13106;50.808;5.670;2022-09-01T13:27:16;3.78;;;1.08;;
25125;SDS011;13106;50.808;5.670;2022-09-01T13:29:42;4.68;;;1.10;;
25125;SDS011;13106;50.808;5.670;2022-09-01T13:32:10;2.50;;;1.10;;
25125;SDS011;13106;50.808;5.670;2022-09-01T13:34:36;3.67;;;1.40;;
25125;SDS011;13106;50.808;5.670;2022-09-01T13:37:04;1.27;;;1.00;;
25125;SDS011;13106;50.808;5.670;2022-09-01T13:39:30;1.83;;;1.02;;
25125;SDS011;13106;50.808;5.670;2022-09-01T13:41:56;1.25;;;1.00;;
25125;SDS011;13106;50.808;5.670;2022-09-01T13:44:22;3.25;;;1.00;;
25125;SDS011;13106;50.808;5.670;2022-09-01T13:46:48;3.75;;;1.27;;
25125;SDS011;13106;50.808;5.670;2022-09-01T13:49:14;4.82;;;1.20;;
25125;SDS011;13106;50.808;5.670;2022-09-01T13:51:40;4.88;;;1.30;;
25125;SDS011;13106;50.808;5.670;2022-09-01T13:54:06;3.95;;;1.20;;
25125;SDS011;13106;50.808;5.670;2022-09-01T13:56:33;3.65;;;1.10;;
25125;SDS011;13106;50.808;5.670;2022-09-01T13:58:59;5.63;;;1.17;;
25125;SDS011;13106;50.808;5.670;2022-09-01T14:01:25;7.80;;;1.30;;
25125;SDS011;13106;50.808;5.670;2022-09-01T14:03:51;4.15;;;1.20;;
25125;SDS011;13106;50.808;5.670;2022-09-01T14:06:17;5.90;;;1.13;;
25125;SDS011;13106;50.808;5.670;2022-09-01T14:08:44;2.03;;;1.10;;
25125;SDS011;13106;50.808;5.670;2022-09-01T14:11:15;5.93;;;1.20;;
25125;SDS011;13106;50.808;5.670;2022-09-01T14:13:41;1.77;;;1.40;;
25125;SDS011;13106;50.808;5.670;2022-09-01T14:16:10;8.68;;;3.67;;
25125;SDS011;13106;50.808;5.670;2022-09-01T14:18:36;3.08;;;1.30;;
25125;SDS011;13106;50.808;5.670;2022-09-01T14:21:02;8.40;;;1.90;;
25125;SDS011;13106;50.808;5.670;2022-09-01T14:23:29;3.38;;;1.25;;
25125;SDS011;13106;50.808;5.670;2022-09-01T14:25:55;4.07;;;1.65;;
25125;SDS011;13106;50.808;5.670;2022-09-01T14:28:23;2.65;;;1.60;;
25125;SDS011;13106;50.808;5.670;2022-09-01T14:30:49;4.60;;;1.60;;
25125;SDS011;13106;50.808;5.670;2022-09-01T14:33:15;4.80;;;1.40;;
25125;SDS011;13106;50.808;5.670;2022-09-01T14:35:42;4.57;;;1.33;;
25125;SDS011;13106;50.808;5.670;2022-09-01T14:38:09;3.05;;;1.50;;
25125;SDS011;13106;50.808;5.670;2022-09-01T14:40:36;19.65;;;2.20;;
25125;SDS011;13106;50.808;5.670;2022-09-01T14:43:03;2.95;;;1.83;;
25125;SDS011;13106;50.808;5.670;2022-09-01T14:45:30;3.83;;;1.58;;
25125;SDS011;13106;50.808;5.670;2022-09-01T14:47:56;4.82;;;1.60;;
25125;SDS011;13106;50.808;5.670;2022-09-01T14:50:24;5.88;;;1.70;;
25125;SDS011;13106;50.808;5.670;2022-09-01T14:52:52;3.05;;;1.65;;
25125;SDS011;13106;50.808;5.670;2022-09-01T14:55:20;2.78;;;1.40;;
25125;SDS011;13106;50.808;5.670;2022-09-01T14:57:46;2.28;;;1.50;;
25125;SDS011;13106;50.808;5.670;2022-09-01T15:00:12;5.00;;;1.58;;
25125;SDS011;13106;50.808;5.670;2022-09-01T15:02:38;3.60;;;1.70;;
25125;SDS011;13106;50.808;5.670;2022-09-01T15:05:05;3.15;;;1.58;;
25125;SDS011;13106;50.808;5.670;2022-09-01T15:07:31;7.55;;;2.00;;
25125;SDS011;13106;50.808;5.670;2022-09-01T15:09:57;3.10;;;1.88;;
25125;SDS011;13106;50.808;5.670;2022-09-01T15:12:23;2.08;;;1.70;;
25125;SDS011;13106;50.808;5.670;2022-09-01T15:14:50;7.15;;;1.67;;
25125;SDS011;13106;50.808;5.670;2022-09-01T15:17:16;4.55;;;1.60;;
25125;SDS011;13106;50.808;5.670;2022-09-01T15:19:42;2.47;;;1.48;;
25125;SDS011;13106;50.808;5.670;2022-09-01T15:22:08;3.30;;;1.33;;
25125;SDS011;13106;50.808;5.670;2022-09-01T15:24:36;4.70;;;1.80;;
25125;SDS011;13106;50.808;5.670;2022-09-01T15:27:02;3.15;;;1.67;;
25125;SDS011;13106;50.808;5.670;2022-09-01T15:29:30;2.85;;;1.50;;
25125;SDS011;13106;50.808;5.670;2022-09-01T15:31:58;3.65;;;1.50;;
25125;SDS011;13106;50.808;5.670;2022-09-01T15:34:24;5.32;;;1.65;;
25125;SDS011;13106;50.808;5.670;2022-09-01T15:36:50;3.10;;;1.50;;
25125;SDS011;13106;50.808;5.670;2022-09-01T15:39:16;1.92;;;1.52;;
25125;SDS011;13106;50.808;5.670;2022-09-01T15:41:42;4.70;;;1.60;;
25125;SDS011;13106;50.808;5.670;2022-09-01T15:44:09;7.72;;;1.73;;
25125;SDS011;13106;50.808;5.670;2022-09-01T15:46:35;6.70;;;1.80;;
25125;SDS011;13106;50.808;5.670;2022-09-01T15:49:03;3.28;;;1.50;;
25125;SDS011;13106;50.808;5.670;2022-09-01T15:54:04;5.07;;;1.60;;